Muldoon, Idaho
Current Conditions -  °F | °C
As of 4:55 PM on Friday 24 Oct 2014 (Local Time) from KSUN Reporting Station
Clear Clear  
Wind Chill: 66°   Ceiling: Unl
Heat Index: 66°   Visibility: 10mi
Dew Point: 30°   Wind: 0mph
Humidity: 26%   Direction: NA
Pressure: 30.12"   Gusts: NA
Location:  43.1959°N, 113.555°W
Report Text: KSUN 242255Z 00000KT 10SM SKC 19/M01 A3012
Loading
Personal Weather Stations






























Interactive Weather Map
Tropical Storm Tracking
New forecast layout! Learn more

10-Day Weather Forecast

Advertisements
Track Severe Weather on mobile